sensor_id;sensor_type;location;lat;lon;timestamp;pressure;altitude;pressure_sealevel;temperature;humidity
67430;BME280;54298;52.076;5.264;2024-03-17T00:00:05;102230.0;;;4.96;82.51
67430;BME280;54298;52.076;5.264;2024-03-17T00:01:42;102230.0;;;4.89;82.8
67430;BME280;54298;52.076;5.264;2024-03-17T00:03:18;102223.0;;;4.91;83.12
67430;BME280;54298;52.076;5.264;2024-03-17T00:06:30;102224.0;;;4.96;83.04
67430;BME280;54298;52.076;5.264;2024-03-17T00:08:07;102222.0;;;5.11;82.69
67430;BME280;54298;52.076;5.264;2024-03-17T00:09:45;102221.0;;;5.01;82.75
67430;BME280;54298;52.076;5.264;2024-03-17T00:12:58;102220.0;;;5.07;82.6
67430;BME280;54298;52.076;5.264;2024-03-17T00:14:35;102215.0;;;5.12;82.48
67430;BME280;54298;52.076;5.264;2024-03-17T00:16:13;102215.0;;;4.95;83.28
67430;BME280;54298;52.076;5.264;2024-03-17T00:19:25;102210.0;;;5.13;82.51
67430;BME280;54298;52.076;5.264;2024-03-17T00:21:01;102208.0;;;5.19;82.47
67430;BME280;54298;52.076;5.264;2024-03-17T00:22:38;102202.0;;;5.05;83.1
67430;BME280;54298;52.076;5.264;2024-03-17T00:24:14;102202.0;;;5.13;82.57
67430;BME280;54298;52.076;5.264;2024-03-17T00:27:26;102207.0;;;5.11;82.84
67430;BME280;54298;52.076;5.264;2024-03-17T00:29:02;102203.0;;;5.12;83.09
67430;BME280;54298;52.076;5.264;2024-03-17T00:30:39;102197.0;;;5.19;82.85
67430;BME280;54298;52.076;5.264;2024-03-17T00:33:51;102199.0;;;5.24;82.82
67430;BME280;54298;52.076;5.264;2024-03-17T00:35:28;102200.0;;;5.26;82.77
67430;BME280;54298;52.076;5.264;2024-03-17T00:37:04;102197.0;;;5.33;82.67
67430;BME280;54298;52.076;5.264;2024-03-17T00:40:17;102190.0;;;5.32;82.85
67430;BME280;54298;52.076;5.264;2024-03-17T00:41:53;102194.0;;;5.4;82.44
67430;BME280;54298;52.076;5.264;2024-03-17T00:43:29;102192.0;;;5.29;82.76
67430;BME280;54298;52.076;5.264;2024-03-17T00:45:06;102193.0;;;5.35;82.81
67430;BME280;54298;52.076;5.264;2024-03-17T00:48:19;102191.0;;;5.21;83.34
67430;BME280;54298;52.076;5.264;2024-03-17T00:49:56;102195.0;;;5.12;84.03
67430;BME280;54298;52.076;5.264;2024-03-17T00:51:32;102193.0;;;5.03;84.51
67430;BME280;54298;52.076;5.264;2024-03-17T00:54:46;102194.0;;;4.97;85.0
67430;BME280;54298;52.076;5.264;2024-03-17T00:56:23;102187.0;;;5.09;84.64
67430;BME280;54298;52.076;5.264;2024-03-17T00:58:00;102187.0;;;5.16;84.29
67430;BME280;54298;52.076;5.264;2024-03-17T01:01:12;102190.0;;;5.07;85.04
67430;BME280;54298;52.076;5.264;2024-03-17T01:02:49;102188.0;;;5.14;84.94
67430;BME280;54298;52.076;5.264;2024-03-17T01:04:25;102185.0;;;5.27;84.45
67430;BME280;54298;52.076;5.264;2024-03-17T01:06:03;102180.0;;;5.33;84.27
67430;BME280;54298;52.076;5.264;2024-03-17T01:09:15;102175.0;;;5.11;84.68
67430;BME280;54298;52.076;5.264;2024-03-17T01:10:51;102176.0;;;5.44;83.86
67430;BME280;54298;52.076;5.264;2024-03-17T01:12:27;102172.0;;;5.41;83.72
67430;BME280;54298;52.076;5.264;2024-03-17T01:15:39;102182.0;;;5.38;83.86
67430;BME280;54298;52.076;5.264;2024-03-17T01:17:15;102176.0;;;5.29;84.35
67430;BME280;54298;52.076;5.264;2024-03-17T01:18:51;102177.0;;;5.34;84.65
67430;BME280;54298;52.076;5.264;2024-03-17T01:22:04;102173.0;;;5.24;84.94
67430;BME280;54298;52.076;5.264;2024-03-17T01:23:41;102176.0;;;5.24;85.08
67430;BME280;54298;52.076;5.264;2024-03-17T01:25:18;102167.0;;;5.41;84.8
67430;BME280;54298;52.076;5.264;2024-03-17T01:28:30;102164.0;;;5.49;84.8
67430;BME280;54298;52.076;5.264;2024-03-17T01:30:07;102160.0;;;5.66;84.21
67430;BME280;54298;52.076;5.264;2024-03-17T01:31:44;102159.0;;;5.67;83.97
67430;BME280;54298;52.076;5.264;2024-03-17T01:33:20;102157.0;;;5.76;83.83
67430;BME280;54298;52.076;5.264;2024-03-17T01:36:33;102156.0;;;5.79;83.63
67430;BME280;54298;52.076;5.264;2024-03-17T01:38:09;102149.0;;;5.87;83.29
67430;BME280;54298;52.076;5.264;2024-03-17T01:39:46;102143.0;;;5.93;83.02
67430;BME280;54298;52.076;5.264;2024-03-17T01:42:59;102137.0;;;5.98;82.8
67430;BME280;54298;52.076;5.264;2024-03-17T01:44:35;102134.0;;;5.99;82.25
67430;BME280;54298;52.076;5.264;2024-03-17T01:46:14;102134.0;;;5.95;82.49
67430;BME280;54298;52.076;5.264;2024-03-17T01:47:53;102131.0;;;5.9;82.52
67430;BME280;54298;52.076;5.264;2024-03-17T01:51:07;102131.0;;;5.6;83.86
67430;BME280;54298;52.076;5.264;2024-03-17T01:52:47;102135.0;;;5.58;84.04
67430;BME280;54298;52.076;5.264;2024-03-17T01:54:24;102126.0;;;5.59;84.26
67430;BME280;54298;52.076;5.264;2024-03-17T01:57:39;102127.0;;;5.72;84.01
67430;BME280;54298;52.076;5.264;2024-03-17T01:59:16;102130.0;;;5.74;83.98
67430;BME280;54298;52.076;5.264;2024-03-17T02:00:53;102125.0;;;5.77;83.85
67430;BME280;54298;52.076;5.264;2024-03-17T02:02:29;102124.0;;;5.78;83.86
67430;BME280;54298;52.076;5.264;2024-03-17T02:05:42;102128.0;;;5.61;84.93
67430;BME280;54298;52.076;5.264;2024-03-17T02:07:19;102125.0;;;5.54;85.45
67430;BME280;54298;52.076;5.264;2024-03-17T02:08:55;102121.0;;;5.63;85.37
67430;BME280;54298;52.076;5.264;2024-03-17T02:12:07;102125.0;;;5.72;84.87
67430;BME280;54298;52.076;5.264;2024-03-17T02:13:44;102126.0;;;5.56;85.59
67430;BME280;54298;52.076;5.264;2024-03-17T02:15:21;102125.0;;;5.63;85.55
67430;BME280;54298;52.076;5.264;2024-03-17T02:18:36;102118.0;;;5.57;85.82
67430;BME280;54298;52.076;5.264;2024-03-17T02:20:12;102115.0;;;5.69;85.49
67430;BME280;54298;52.076;5.264;2024-03-17T02:21:48;102110.0;;;5.89;84.75
67430;BME280;54298;52.076;5.264;2024-03-17T02:23:25;102108.0;;;6.03;84.01
67430;BME280;54298;52.076;5.264;2024-03-17T02:26:39;102106.0;;;5.88;84.63
67430;BME280;54298;52.076;5.264;2024-03-17T02:28:15;102106.0;;;5.93;84.46
67430;BME280;54298;52.076;5.264;2024-03-17T02:29:51;102105.0;;;5.95;84.74
67430;BME280;54298;52.076;5.264;2024-03-17T02:33:04;102103.0;;;5.86;85.24
67430;BME280;54298;52.076;5.264;2024-03-17T02:34:40;102106.0;;;5.76;86.3
67430;BME280;54298;52.076;5.264;2024-03-17T02:36:16;102099.0;;;5.93;85.76
67430;BME280;54298;52.076;5.264;2024-03-17T02:39:28;102100.0;;;5.99;85.38
67430;BME280;54298;52.076;5.264;2024-03-17T02:41:05;102096.0;;;6.19;84.9
67430;BME280;54298;52.076;5.264;2024-03-17T02:42:41;102098.0;;;6.29;84.32
67430;BME280;54298;52.076;5.264;2024-03-17T02:45:53;102097.0;;;6.3;84.36
67430;BME280;54298;52.076;5.264;2024-03-17T02:47:29;102101.0;;;6.44;84.44
67430;BME280;54298;52.076;5.264;2024-03-17T02:49:06;102096.0;;;6.51;84.01
67430;BME280;54298;52.076;5.264;2024-03-17T02:50:42;102098.0;;;6.66;83.33
67430;BME280;54298;52.076;5.264;2024-03-17T02:53:54;102094.0;;;6.79;82.63
67430;BME280;54298;52.076;5.264;2024-03-17T02:55:30;102090.0;;;6.77;82.22
67430;BME280;54298;52.076;5.264;2024-03-17T02:57:06;102090.0;;;6.73;81.95
67430;BME280;54298;52.076;5.264;2024-03-17T03:00:20;102090.0;;;6.91;82.01
67430;BME280;54298;52.076;5.264;2024-03-17T03:01:57;102091.0;;;6.91;81.63
67430;BME280;54298;52.076;5.264;2024-03-17T03:03:35;102091.0;;;7.13;81.16
67430;BME280;54298;52.076;5.264;2024-03-17T03:06:48;102088.0;;;7.07;81.19
67430;BME280;54298;52.076;5.264;2024-03-17T03:08:24;102083.0;;;7.24;80.67
67430;BME280;54298;52.076;5.264;2024-03-17T03:10:00;102087.0;;;7.23;80.72
67430;BME280;54298;52.076;5.264;2024-03-17T03:11:37;102092.0;;;7.25;80.55
67430;BME280;54298;52.076;5.264;2024-03-17T03:14:49;102089.0;;;7.38;79.95
67430;BME280;54298;52.076;5.264;2024-03-17T03:16:26;102094.0;;;7.28;80.33
67430;BME280;54298;52.076;5.264;2024-03-17T03:18:03;102083.0;;;7.49;79.41
67430;BME280;54298;52.076;5.264;2024-03-17T03:21:16;102086.0;;;7.54;79.08
67430;BME280;54298;52.076;5.264;2024-03-17T03:22:52;102089.0;;;7.62;78.62
67430;BME280;54298;52.076;5.264;2024-03-17T03:24:28;102095.0;;;7.6;78.59
67430;BME280;54298;52.076;5.264;2024-03-17T03:27:40;102091.0;;;7.68;78.44
67430;BME280;54298;52.076;5.264;2024-03-17T03:29:16;102081.0;;;7.67;78.66
67430;BME280;54298;52.076;5.264;2024-03-17T03:30:52;102083.0;;;7.73;78.3
67430;BME280;54298;52.076;5.264;2024-03-17T03:32:28;102083.0;;;7.8;78.11
67430;BME280;54298;52.076;5.264;2024-03-17T03:35:41;102081.0;;;7.85;77.69
67430;BME280;54298;52.076;5.264;2024-03-17T03:37:18;102078.0;;;7.84;77.73
67430;BME280;54298;52.076;5.264;2024-03-17T03:38:54;102075.0;;;7.87;77.86
67430;BME280;54298;52.076;5.264;2024-03-17T03:42:07;102071.0;;;7.87;77.55
67430;BME280;54298;52.076;5.264;2024-03-17T03:43:43;102067.0;;;7.84;77.59
67430;BME280;54298;52.076;5.264;2024-03-17T03:45:19;102069.0;;;7.83;77.94
67430;BME280;54298;52.076;5.264;2024-03-17T03:48:31;102064.0;;;7.98;77.38
67430;BME280;54298;52.076;5.264;2024-03-17T03:50:09;102065.0;;;8.0;77.44
67430;BME280;54298;52.076;5.264;2024-03-17T03:51:45;102057.0;;;8.03;77.25
67430;BME280;54298;52.076;5.264;2024-03-17T03:53:22;102050.0;;;8.06;77.25
67430;BME280;54298;52.076;5.264;2024-03-17T03:56:36;102043.0;;;7.97;77.17
67430;BME280;54298;52.076;5.264;2024-03-17T03:58:12;102038.0;;;8.1;76.94
67430;BME280;54298;52.076;5.264;2024-03-17T03:59:48;102037.0;;;8.23;76.03
67430;BME280;54298;52.076;5.264;2024-03-17T04:03:01;102032.0;;;8.23;76.3
67430;BME280;54298;52.076;5.264;2024-03-17T04:04:37;102028.0;;;7.91;77.08
67430;BME280;54298;52.076;5.264;2024-03-17T04:06:13;102030.0;;;8.23;76.11
67430;BME280;54298;52.076;5.264;2024-03-17T04:09:25;102024.0;;;8.25;75.89
67430;BME280;54298;52.076;5.264;2024-03-17T04:11:02;102021.0;;;8.18;75.94
67430;BME280;54298;52.076;5.264;2024-03-17T04:12:39;102019.0;;;8.31;75.86
67430;BME280;54298;52.076;5.264;2024-03-17T04:14:16;102015.0;;;8.23;75.99
67430;BME280;54298;52.076;5.264;2024-03-17T04:17:28;102015.0;;;8.24;75.98
67430;BME280;54298;52.076;5.264;2024-03-17T04:19:05;102018.0;;;8.27;75.87
67430;BME280;54298;52.076;5.264;2024-03-17T04:20:41;102021.0;;;8.33;75.74
67430;BME280;54298;52.076;5.264;2024-03-17T04:23:55;102023.0;;;8.3;75.72
67430;BME280;54298;52.076;5.264;2024-03-17T04:25:32;102014.0;;;8.31;75.72
67430;BME280;54298;52.076;5.264;2024-03-17T04:27:08;102019.0;;;8.34;75.42
67430;BME280;54298;52.076;5.264;2024-03-17T04:30:20;102014.0;;;8.4;75.17
67430;BME280;54298;52.076;5.264;2024-03-17T04:31:56;102016.0;;;8.36;75.08
67430;BME280;54298;52.076;5.264;2024-03-17T04:33:32;102006.0;;;8.24;75.16
67430;BME280;54298;52.076;5.264;2024-03-17T04:36:45;101998.0;;;8.45;75.05
67430;BME280;54298;52.076;5.264;2024-03-17T04:38:22;102000.0;;;8.31;75.02
67430;BME280;54298;52.076;5.264;2024-03-17T04:39:58;101998.0;;;8.44;74.52
67430;BME280;54298;52.076;5.264;2024-03-17T04:41:35;101999.0;;;8.39;74.74
67430;BME280;54298;52.076;5.264;2024-03-17T04:44:48;101998.0;;;8.5;74.16
67430;BME280;54298;52.076;5.264;2024-03-17T04:46:24;101999.0;;;8.48;74.14
67430;BME280;54298;52.076;5.264;2024-03-17T04:48:00;101993.0;;;8.39;74.61
67430;BME280;54298;52.076;5.264;2024-03-17T04:51:15;102005.0;;;8.5;74.42
67430;BME280;54298;52.076;5.264;2024-03-17T04:52:51;102009.0;;;8.45;74.39
67430;BME280;54298;52.076;5.264;2024-03-17T04:54:28;102016.0;;;8.57;73.74
67430;BME280;54298;52.076;5.264;2024-03-17T04:56:06;102017.0;;;8.56;73.52
67430;BME280;54298;52.076;5.264;2024-03-17T04:59:20;102022.0;;;8.52;73.69
67430;BME280;54298;52.076;5.264;2024-03-17T05:00:57;102016.0;;;8.53;73.89
67430;BME280;54298;52.076;5.264;2024-03-17T05:02:33;102016.0;;;8.59;73.67
67430;BME280;54298;52.076;5.264;2024-03-17T05:05:45;102005.0;;;8.56;73.95
67430;BME280;54298;52.076;5.264;2024-03-17T05:07:22;102012.0;;;8.34;74.12
67430;BME280;54298;52.076;5.264;2024-03-17T05:08:58;102010.0;;;8.47;74.14
67430;BME280;54298;52.076;5.264;2024-03-17T05:12:10;102008.0;;;8.42;74.47
67430;BME280;54298;52.076;5.264;2024-03-17T05:13:46;102003.0;;;8.36;74.27
67430;BME280;54298;52.076;5.264;2024-03-17T05:15:23;101998.0;;;8.56;73.89
67430;BME280;54298;52.076;5.264;2024-03-17T05:18:36;102005.0;;;8.45;74.12
67430;BME280;54298;52.076;5.264;2024-03-17T05:20:12;102005.0;;;8.41;74.28
67430;BME280;54298;52.076;5.264;2024-03-17T05:21:49;102002.0;;;8.18;74.55
67430;BME280;54298;52.076;5.264;2024-03-17T05:23:26;102005.0;;;8.31;74.75
67430;BME280;54298;52.076;5.264;2024-03-17T05:26:40;102006.0;;;8.26;74.52
67430;BME280;54298;52.076;5.264;2024-03-17T05:28:16;102003.0;;;8.34;74.66
67430;BME280;54298;52.076;5.264;2024-03-17T05:29:53;101996.0;;;8.24;74.77
67430;BME280;54298;52.076;5.264;2024-03-17T05:33:06;101996.0;;;8.28;74.77
67430;BME280;54298;52.076;5.264;2024-03-17T05:34:42;101986.0;;;8.36;74.8
67430;BME280;54298;52.076;5.264;2024-03-17T05:36:18;101985.0;;;8.3;74.94
67430;BME280;54298;52.076;5.264;2024-03-17T05:39:30;101978.0;;;8.31;74.67
67430;BME280;54298;52.076;5.264;2024-03-17T05:41:07;101983.0;;;8.27;74.64
67430;BME280;54298;52.076;5.264;2024-03-17T05:42:44;101988.0;;;8.41;74.13
67430;BME280;54298;52.076;5.264;2024-03-17T05:44:20;101991.0;;;8.23;74.31
67430;BME280;54298;52.076;5.264;2024-03-17T05:47:34;101988.0;;;8.32;74.41
67430;BME280;54298;52.076;5.264;2024-03-17T05:49:11;101996.0;;;8.26;74.31
67430;BME280;54298;52.076;5.264;2024-03-17T05:50:48;101995.0;;;8.25;74.49
67430;BME280;54298;52.076;5.264;2024-03-17T05:54:00;101994.0;;;8.32;74.05
67430;BME280;54298;52.076;5.264;2024-03-17T05:55:36;102001.0;;;8.25;74.25
67430;BME280;54298;52.076;5.264;2024-03-17T05:57:13;102007.0;;;8.18;74.63
67430;BME280;54298;52.076;5.264;2024-03-17T06:00:27;102005.0;;;8.31;74.19
67430;BME280;54298;52.076;5.264;2024-03-17T06:02:03;102006.0;;;8.26;74.47
67430;BME280;54298;52.076;5.264;2024-03-17T06:03:40;102008.0;;;8.32;74.19
67430;BME280;54298;52.076;5.264;2024-03-17T06:05:16;102005.0;;;8.31;74.22
67430;BME280;54298;52.076;5.264;2024-03-17T06:08:28;102005.0;;;8.31;74.28
67430;BME280;54298;52.076;5.264;2024-03-17T06:10:06;102000.0;;;8.26;74.44
67430;BME280;54298;52.076;5.264;2024-03-17T06:11:42;101999.0;;;8.23;74.87
67430;BME280;54298;52.076;5.264;2024-03-17T06:14:55;102005.0;;;8.31;74.86
67430;BME280;54298;52.076;5.264;2024-03-17T06:16:31;102000.0;;;8.38;74.53
67430;BME280;54298;52.076;5.264;2024-03-17T06:18:11;101996.0;;;8.32;74.61
67430;BME280;54298;52.076;5.264;2024-03-17T06:19:48;101996.0;;;8.31;75.11
67430;BME280;54298;52.076;5.264;2024-03-17T06:23:00;101992.0;;;8.34;74.98
67430;BME280;54298;52.076;5.264;2024-03-17T06:24:37;101992.0;;;8.31;75.25
67430;BME280;54298;52.076;5.264;2024-03-17T06:26:14;101991.0;;;8.38;75.23
67430;BME280;54298;52.076;5.264;2024-03-17T06:29:28;101992.0;;;8.43;74.99
67430;BME280;54298;52.076;5.264;2024-03-17T06:31:05;101994.0;;;8.43;74.8
67430;BME280;54298;52.076;5.264;2024-03-17T06:32:42;101991.0;;;8.23;75.36
67430;BME280;54298;52.076;5.264;2024-03-17T06:35:55;101982.0;;;8.52;75.08
67430;BME280;54298;52.076;5.264;2024-03-17T06:37:31;101989.0;;;8.56;74.94
67430;BME280;54298;52.076;5.264;2024-03-17T06:39:07;101991.0;;;8.6;74.73
67430;BME280;54298;52.076;5.264;2024-03-17T06:40:48;101996.0;;;8.69;74.41
67430;BME280;54298;52.076;5.264;2024-03-17T06:44:02;101999.0;;;8.67;74.14
67430;BME280;54298;52.076;5.264;2024-03-17T06:45:39;102001.0;;;8.8;73.72
67430;BME280;54298;52.076;5.264;2024-03-17T06:47:16;102001.0;;;8.73;73.83
67430;BME280;54298;52.076;5.264;2024-03-17T06:50:29;101996.0;;;8.78;73.86
67430;BME280;54298;52.076;5.264;2024-03-17T06:52:05;101995.0;;;8.77;74.22
67430;BME280;54298;52.076;5.264;2024-03-17T06:53:42;101995.0;;;8.75;74.09
67430;BME280;54298;52.076;5.264;2024-03-17T06:56:55;101995.0;;;8.67;74.44
67430;BME280;54298;52.076;5.264;2024-03-17T06:58:31;101992.0;;;8.84;73.77
67430;BME280;54298;52.076;5.264;2024-03-17T07:00:08;101992.0;;;8.82;73.95
67430;BME280;54298;52.076;5.264;2024-03-17T07:01:45;101991.0;;;8.72;73.94
67430;BME280;54298;52.076;5.264;2024-03-17T07:05:00;101985.0;;;8.82;74.03
67430;BME280;54298;52.076;5.264;2024-03-17T07:06:36;101993.0;;;9.01;73.49
67430;BME280;54298;52.076;5.264;2024-03-17T07:08:13;101997.0;;;8.99;73.7
67430;BME280;54298;52.076;5.264;2024-03-17T07:11:25;101997.0;;;8.91;73.7
67430;BME280;54298;52.076;5.264;2024-03-17T07:13:01;101998.0;;;8.96;73.52
67430;BME280;54298;52.076;5.264;2024-03-17T07:14:37;102001.0;;;9.06;73.48
67430;BME280;54298;52.076;5.264;2024-03-17T07:17:50;102001.0;;;9.05;73.41
67430;BME280;54298;52.076;5.264;2024-03-17T07:19:27;101996.0;;;9.14;73.27
67430;BME280;54298;52.076;5.264;2024-03-17T07:21:04;102005.0;;;9.23;72.8
67430;BME280;54298;52.076;5.264;2024-03-17T07:22:41;101993.0;;;9.35;72.77
67430;BME280;54298;52.076;5.264;2024-03-17T07:25:54;102000.0;;;9.31;72.77
67430;BME280;54298;52.076;5.264;2024-03-17T07:27:31;101999.0;;;9.43;72.77
67430;BME280;54298;52.076;5.264;2024-03-17T07:29:07;101993.0;;;9.43;72.75
67430;BME280;54298;52.076;5.264;2024-03-17T07:32:23;101988.0;;;9.44;73.0
67430;BME280;54298;52.076;5.264;2024-03-17T07:34:00;101982.0;;;9.32;73.16
67430;BME280;54298;52.076;5.264;2024-03-17T07:35:46;101991.0;;;9.36;73.3
67430;BME280;54298;52.076;5.264;2024-03-17T07:37:22;101993.0;;;9.41;72.73
67430;BME280;54298;52.076;5.264;2024-03-17T07:40:35;101993.0;;;9.52;72.66
67430;BME280;54298;52.076;5.264;2024-03-17T07:42:12;101998.0;;;9.64;72.37
67430;BME280;54298;52.076;5.264;2024-03-17T07:43:48;101995.0;;;9.55;72.49
67430;BME280;54298;52.076;5.264;2024-03-17T07:47:00;101990.0;;;9.65;72.41
67430;BME280;54298;52.076;5.264;2024-03-17T07:48:38;101989.0;;;9.57;72.27
67430;BME280;54298;52.076;5.264;2024-03-17T07:50:15;101987.0;;;9.68;72.31
67430;BME280;54298;52.076;5.264;2024-03-17T07:51:51;101982.0;;;9.89;71.97
67430;BME280;54298;52.076;5.264;2024-03-17T07:55:06;101981.0;;;9.86;72.05
67430;BME280;54298;52.076;5.264;2024-03-17T07:56:43;101972.0;;;9.83;72.27
67430;BME280;54298;52.076;5.264;2024-03-17T07:58:20;101973.0;;;9.97;71.81
67430;BME280;54298;52.076;5.264;2024-03-17T08:01:32;101973.0;;;10.06;71.56
67430;BME280;54298;52.076;5.264;2024-03-17T08:03:09;101976.0;;;10.14;71.33
67430;BME280;54298;52.076;5.264;2024-03-17T08:04:45;101978.0;;;10.03;71.05
67430;BME280;54298;52.076;5.264;2024-03-17T08:07:58;101990.0;;;10.23;70.77
67430;BME280;54298;52.076;5.264;2024-03-17T08:09:34;101993.0;;;10.41;70.33
67430;BME280;54298;52.076;5.264;2024-03-17T08:11:11;101992.0;;;10.41;70.33
67430;BME280;54298;52.076;5.264;2024-03-17T08:12:48;101989.0;;;10.01;71.36
67430;BME280;54298;52.076;5.264;2024-03-17T08:16:01;101986.0;;;10.35;70.66
67430;BME280;54298;52.076;5.264;2024-03-17T08:17:38;101982.0;;;10.41;70.19
67430;BME280;54298;52.076;5.264;2024-03-17T08:19:15;101984.0;;;10.42;70.16
67430;BME280;54298;52.076;5.264;2024-03-17T08:22:29;101982.0;;;10.51;69.84
67430;BME280;54298;52.076;5.264;2024-03-17T08:24:05;101981.0;;;10.66;69.7
67430;BME280;54298;52.076;5.264;2024-03-17T08:25:42;101976.0;;;10.44;70.44
67430;BME280;54298;52.076;5.264;2024-03-17T08:27:27;101975.0;;;10.54;70.28
67430;BME280;54298;52.076;5.264;2024-03-17T08:30:39;101978.0;;;10.65;69.95
67430;BME280;54298;52.076;5.264;2024-03-17T08:32:15;101977.0;;;10.67;70.16
67430;BME280;54298;52.076;5.264;2024-03-17T08:33:51;101980.0;;;10.6;70.16
67430;BME280;54298;52.076;5.264;2024-03-17T08:37:03;101977.0;;;10.55;70.33
67430;BME280;54298;52.076;5.264;2024-03-17T08:38:41;101984.0;;;10.63;70.55
67430;BME280;54298;52.076;5.264;2024-03-17T08:40:18;101987.0;;;10.73;70.31
67430;BME280;54298;52.076;5.264;2024-03-17T08:43:32;101976.0;;;10.8;69.87
67430;BME280;54298;52.076;5.264;2024-03-17T08:45:10;101977.0;;;10.76;69.97
67430;BME280;54298;52.076;5.264;2024-03-17T08:46:47;101978.0;;;10.83;69.83
67430;BME280;54298;52.076;5.264;2024-03-17T08:48:24;101980.0;;;10.79;69.63
67430;BME280;54298;52.076;5.264;2024-03-17T08:51:37;101977.0;;;10.97;69.55
67430;BME280;54298;52.076;5.264;2024-03-17T08:53:14;101978.0;;;11.06;69.34
67430;BME280;54298;52.076;5.264;2024-03-17T08:54:51;101978.0;;;11.12;69.23
67430;BME280;54298;52.076;5.264;2024-03-17T08:58:03;101978.0;;;11.22;68.63
67430;BME280;54298;52.076;5.264;2024-03-17T08:59:40;101972.0;;;11.2;68.62
67430;BME280;54298;52.076;5.264;2024-03-17T09:01:16;101970.0;;;11.2;68.7
67430;BME280;54298;52.076;5.264;2024-03-17T09:04:30;101971.0;;;11.28;68.63
67430;BME280;54298;52.076;5.264;2024-03-17T09:06:14;101971.0;;;11.32;68.61
67430;BME280;54298;52.076;5.264;2024-03-17T09:07:50;101971.0;;;11.3;67.97
67430;BME280;54298;52.076;5.264;2024-03-17T09:09:27;101969.0;;;11.42;67.89
67430;BME280;54298;52.076;5.264;2024-03-17T09:12:48;101970.0;;;11.42;68.05
67430;BME280;54298;52.076;5.264;2024-03-17T09:14:25;101970.0;;;11.37;68.23
67430;BME280;54298;52.076;5.264;2024-03-17T09:16:01;101967.0;;;11.38;68.39
67430;BME280;54298;52.076;5.264;2024-03-17T09:17:38;101967.0;;;11.38;68.22
67430;BME280;54298;52.076;5.264;2024-03-17T09:20:57;101960.0;;;11.41;68.11
67430;BME280;54298;52.076;5.264;2024-03-17T09:22:33;101960.0;;;11.42;67.77
67430;BME280;54298;52.076;5.264;2024-03-17T09:24:09;101960.0;;;11.66;67.49
67430;BME280;54298;52.076;5.264;2024-03-17T09:27:31;101961.0;;;11.7;67.36
67430;BME280;54298;52.076;5.264;2024-03-17T09:29:08;101958.0;;;11.74;67.33
67430;BME280;54298;52.076;5.264;2024-03-17T09:30:46;101963.0;;;11.74;67.55
67430;BME280;54298;52.076;5.264;2024-03-17T09:32:24;101966.0;;;11.87;67.53
67430;BME280;54298;52.076;5.264;2024-03-17T09:35:36;101964.0;;;11.91;67.37
67430;BME280;54298;52.076;5.264;2024-03-17T09:37:13;101960.0;;;11.84;67.05
67430;BME280;54298;52.076;5.264;2024-03-17T09:38:49;101959.0;;;11.85;67.5
67430;BME280;54298;52.076;5.264;2024-03-17T09:42:03;101951.0;;;11.87;67.14
67430;BME280;54298;52.076;5.264;2024-03-17T09:43:41;101951.0;;;11.95;67.25
67430;BME280;54298;52.076;5.264;2024-03-17T09:45:19;101943.0;;;12.1;66.83
67430;BME280;54298;52.076;5.264;2024-03-17T09:46:56;101939.0;;;12.2;66.48
67430;BME280;54298;52.076;5.264;2024-03-17T09:50:13;101936.0;;;12.32;66.55
67430;BME280;54298;52.076;5.264;2024-03-17T09:51:51;101935.0;;;12.27;66.23
67430;BME280;54298;52.076;5.264;2024-03-17T09:53:33;101936.0;;;12.36;65.81
67430;BME280;54298;52.076;5.264;2024-03-17T09:56:51;101937.0;;;12.41;65.53
67430;BME280;54298;52.076;5.264;2024-03-17T09:58:28;101933.0;;;12.28;66.3
67430;BME280;54298;52.076;5.264;2024-03-17T10:00:09;101941.0;;;12.26;66.03
67430;BME280;54298;52.076;5.264;2024-03-17T10:01:47;101935.0;;;12.36;65.49
67430;BME280;54298;52.076;5.264;2024-03-17T10:05:23;101939.0;;;12.53;65.08
67430;BME280;54298;52.076;5.264;2024-03-17T10:07:00;101940.0;;;12.54;64.83
67430;BME280;54298;52.076;5.264;2024-03-17T10:08:40;101936.0;;;12.64;64.67
67430;BME280;54298;52.076;5.264;2024-03-17T10:10:18;101934.0;;;12.63;65.42
67430;BME280;54298;52.076;5.264;2024-03-17T10:13:32;101940.0;;;12.71;65.05
67430;BME280;54298;52.076;5.264;2024-03-17T10:15:11;101938.0;;;12.92;64.52
67430;BME280;54298;52.076;5.264;2024-03-17T10:16:48;101934.0;;;12.99;64.69
67430;BME280;54298;52.076;5.264;2024-03-17T10:18:25;101930.0;;;12.97;64.36
67430;BME280;54298;52.076;5.264;2024-03-17T10:21:58;101933.0;;;13.0;64.14
67430;BME280;54298;52.076;5.264;2024-03-17T10:23:35;101930.0;;;13.02;64.0
67430;BME280;54298;52.076;5.264;2024-03-17T10:25:12;101925.0;;;13.15;63.68
67430;BME280;54298;52.076;5.264;2024-03-17T10:26:51;101921.0;;;13.08;63.76
67430;BME280;54298;52.076;5.264;2024-03-17T10:30:14;101928.0;;;13.0;63.98
67430;BME280;54298;52.076;5.264;2024-03-17T10:31:55;101924.0;;;13.27;63.79
67430;BME280;54298;52.076;5.264;2024-03-17T10:33:32;101926.0;;;13.32;63.41
67430;BME280;54298;52.076;5.264;2024-03-17T10:35:25;101926.0;;;13.42;63.01
67430;BME280;54298;52.076;5.264;2024-03-17T10:38:51;101919.0;;;13.32;62.7
67430;BME280;54298;52.076;5.264;2024-03-17T10:40:28;101923.0;;;13.4;63.13
67430;BME280;54298;52.076;5.264;2024-03-17T10:42:06;101916.0;;;13.51;62.87
67430;BME280;54298;52.076;5.264;2024-03-17T10:43:43;101915.0;;;13.49;62.45
67430;BME280;54298;52.076;5.264;2024-03-17T10:46:58;101914.0;;;13.45;63.5
67430;BME280;54298;52.076;5.264;2024-03-17T10:48:37;101914.0;;;13.62;62.37
67430;BME280;54298;52.076;5.264;2024-03-17T10:50:17;101909.0;;;13.71;62.45
67430;BME280;54298;52.076;5.264;2024-03-17T10:51:58;101901.0;;;13.81;62.04
67430;BME280;54298;52.076;5.264;2024-03-17T10:55:20;101903.0;;;13.8;61.77
67430;BME280;54298;52.076;5.264;2024-03-17T10:57:05;101905.0;;;14.01;61.86
67430;BME280;54298;52.076;5.264;2024-03-17T10:58:51;101898.0;;;13.97;62.08
67430;BME280;54298;52.076;5.264;2024-03-17T11:00:31;101901.0;;;14.11;61.17
67430;BME280;54298;52.076;5.264;2024-03-17T11:03:57;101901.0;;;14.22;61.4
67430;BME280;54298;52.076;5.264;2024-03-17T11:05:35;101900.0;;;14.14;60.79
67430;BME280;54298;52.076;5.264;2024-03-17T11:07:16;101897.0;;;14.12;60.6
67430;BME280;54298;52.076;5.264;2024-03-17T11:08:54;101895.0;;;14.18;60.61
67430;BME280;54298;52.076;5.264;2024-03-17T11:12:40;101897.0;;;14.22;60.53